Time;durP1;ratioP1;P1;durP2;ratioP2;P2;SDS_P1;SDS_P2;PMS_P1;PMS_P2;Temp;Humidity;BMP_temperature;BMP_pressure;BME280_temperature;BME280_humidity;BME280_pressure;Samples;Min_cycle;Max_cycle;Signal;HPM_P1;HPM_P2
2023/03/28 00:02:11;;;;;;;2.50;2.30;;;;;;;10.34;59.58;95433.16;4930643;29;20262;-78
2023/03/28 00:04:40;;;;;;;2.50;2.30;;;;;;;10.40;60.03;95429.28;4931157;29;20206;-79
2023/03/28 00:07:07;;;;;;;2.30;2.10;;;;;;;10.41;59.81;95436.09;4930062;29;20206;-78
2023/03/28 00:09:34;;;;;;;2.37;2.00;;;;;;;10.34;59.75;95419.38;4931537;29;20675;-80
2023/03/28 00:12:01;;;;;;;2.20;2.00;;;;;;;10.43;59.38;95431.63;4929039;29;20217;-80
2023/03/28 00:14:28;;;;;;;3.03;1.80;;;;;;;10.45;58.66;95440.13;4931114;29;20205;-80
2023/03/28 00:16:56;;;;;;;2.43;2.23;;;;;;;10.49;57.86;95436.38;4930410;29;20260;-82
2023/03/28 00:19:23;;;;;;;2.30;2.10;;;;;;;10.38;57.96;95415.63;4930960;29;20194;-78
2023/03/28 00:21:50;;;;;;;2.63;2.00;;;;;;;10.47;57.16;95425.31;4931128;29;20654;-79
2023/03/28 00:24:20;;;;;;;2.07;1.97;;;;;;;10.45;57.17;95443.53;4930030;29;20281;-77
2023/03/28 00:26:53;;;;;;;2.10;1.90;;;;;;;10.50;57.16;95443.22;4931185;29;20229;-77
2023/03/28 00:29:21;;;;;;;2.17;1.97;;;;;;;10.42;57.01;95430.84;4913120;29;20197;-79
2023/03/28 00:31:49;;;;;;;2.03;1.70;;;;;;;10.48;56.53;95440.75;4930888;29;20205;-78
2023/03/28 00:34:17;;;;;;;2.00;1.80;;;;;;;10.49;56.32;95436.38;4930142;29;20234;-78
2023/03/28 00:36:44;;;;;;;1.70;1.60;;;;;;;10.50;56.24;95454.41;4929180;29;20265;-79
2023/03/28 00:39:12;;;;;;;1.90;1.80;;;;;;;10.46;56.06;95441.78;4930966;29;20202;-82
2023/03/28 00:41:42;;;;;;;3.03;1.73;;;;;;;10.41;55.74;95436.94;4912977;29;20206;-78
2023/03/28 00:44:37;;;;;;;1.27;1.17;;;;;;;10.36;55.60;95446.78;4932274;29;20685;-78
2023/03/28 00:47:07;;;;;;;1.30;1.20;;;;;;;10.38;55.50;95446.69;4912783;29;20244;-78
2023/03/28 00:49:34;;;;;;;1.10;1.10;;;;;;;10.37;54.31;95460.53;4930344;29;20696;-82
2023/03/28 00:52:03;;;;;;;1.17;1.10;;;;;;;10.29;55.26;95460.25;4930364;29;20253;-81
2023/03/28 00:54:33;;;;;;;1.47;1.33;;;;;;;10.32;55.45;95466.06;4929609;29;20580;-79
2023/03/28 00:57:02;;;;;;;3.77;1.60;;;;;;;10.29;55.56;95458.50;4930984;29;20672;-80
2023/03/28 00:59:32;;;;;;;1.37;1.27;;;;;;;10.15;56.21;95452.63;4929559;29;20194;-73
2023/03/28 01:02:00;;;;;;;2.60;1.60;;;;;;;10.24;56.78;95473.50;4913530;29;20245;-77
2023/03/28 01:04:48;;;;;;;1.87;1.77;;;;;;;10.28;56.99;95471.56;4912273;29;20289;-79
2023/03/28 01:07:20;;;;;;;1.60;1.50;;;;;;;10.22;57.32;95457.25;4912535;29;20230;-75
2023/03/28 01:09:48;;;;;;;3.73;1.50;;;;;;;10.17;56.55;95455.94;4930357;29;20717;-75
2023/03/28 01:12:18;;;;;;;1.43;1.33;;;;;;;10.11;56.25;95448.59;4911963;29;20293;-75
2023/03/28 01:14:46;;;;;;;1.30;1.20;;;;;;;10.22;55.94;95444.31;4913043;29;20298;-74
2023/03/28 01:17:14;;;;;;;1.20;1.10;;;;;;;10.11;56.11;95436.50;4912184;29;20252;-76
2023/03/28 01:20:08;;;;;;;1.10;1.00;;;;;;;10.13;55.87;95436.38;4929114;29;20257;-79
2023/03/28 01:22:52;;;;;;;1.50;1.40;;;;;;;10.08;55.93;95449.59;4929853;29;20198;-76
2023/03/28 01:25:44;;;;;;;1.20;1.10;;;;;;;9.99;56.09;95434.75;4927705;29;20200;-78
2023/03/28 01:28:42;;;;;;;1.13;1.10;;;;;;;10.05;56.28;95447.25;4912791;29;20194;-77
2023/03/28 01:31:12;;;;;;;1.40;1.30;;;;;;;9.98;56.59;95446.00;4929928;29;20201;-80
2023/03/28 01:34:14;;;;;;;1.13;1.03;;;;;;;9.93;56.70;95448.09;4928813;29;20225;-77
2023/03/28 01:36:44;;;;;;;2.00;1.30;;;;;;;9.93;56.70;95436.91;4930482;29;20220;-78
2023/03/28 01:39:22;;;;;;;1.27;1.10;;;;;;;9.89;56.42;95436.31;4912186;29;20194;-73
2023/03/28 01:42:00;;;;;;;1.07;0.97;;;;;;;9.83;56.46;95427.19;4912785;29;20198;-77
2023/03/28 01:44:49;;;;;;;1.67;1.00;;;;;;;9.87;55.82;95445.91;4912995;29;20240;-74
2023/03/28 01:47:39;;;;;;;1.33;1.23;;;;;;;9.90;55.19;95439.69;4928931;29;20875;-73
2023/03/28 01:50:35;;;;;;;1.73;1.30;;;;;;;9.95;54.76;95455.75;4929829;29;20202;-78
2023/03/28 01:53:25;;;;;;;0.90;0.90;;;;;;;9.90;55.16;95448.28;4928447;29;20229;-76
2023/03/28 01:56:00;;;;;;;0.90;0.90;;;;;;;9.70;56.04;95434.16;4927408;29;20619;-74
2023/03/28 01:58:31;;;;;;;1.00;1.00;;;;;;;9.74;56.58;95435.59;4912620;29;20210;-79
2023/03/28 02:01:21;;;;;;;1.00;0.90;;;;;;;9.67;56.76;95436.94;4912399;29;20204;-82
2023/03/28 02:03:55;;;;;;;0.93;0.93;;;;;;;9.61;56.91;95452.00;4911848;29;20284;-78
2023/03/28 02:06:37;;;;;;;1.90;1.10;;;;;;;9.53;57.89;95437.03;4928660;29;20234;-77
2023/03/28 02:09:10;;;;;;;1.00;1.00;;;;;;;9.43;57.70;95428.25;4928499;29;20280;-81
2023/03/28 02:12:07;;;;;;;1.63;1.10;;;;;;;9.44;57.37;95440.22;4913939;29;20568;-85
2023/03/28 02:15:05;;;;;;;0.90;0.90;;;;;;;9.36;57.47;95436.50;4929702;29;20213;-84
2023/03/28 02:18:11;;;;;;;0.80;0.80;;;;;;;9.48;56.15;95448.63;4941837;29;20206;-80
2023/03/28 02:21:04;;;;;;;5.03;1.00;;;;;;;9.40;56.44;95461.19;4915162;29;20297;-81
2023/03/28 02:24:03;;;;;;;1.77;0.90;;;;;;;9.30;56.68;95450.66;4935395;29;20204;-73
2023/03/28 02:26:48;;;;;;;1.73;1.10;;;;;;;9.33;55.91;95460.78;4933141;29;20284;-81
2023/03/28 02:29:38;;;;;;;1.07;0.97;;;;;;;9.21;56.97;95456.41;4922252;29;20297;-81
2023/03/28 02:32:37;;;;;;;1.03;0.90;;;;;;;9.23;56.59;95464.91;4921224;29;20677;-82
2023/03/28 02:35:06;;;;;;;0.80;0.80;;;;;;;9.10;56.76;95469.22;4914869;29;20198;-81
2023/03/28 02:38:00;;;;;;;1.17;0.90;;;;;;;8.96;56.79;95490.75;4933806;29;20658;-75
2023/03/28 02:40:36;;;;;;;0.60;0.60;;;;;;;8.91;56.11;95494.56;4915867;29;20186;-81
2023/03/28 02:43:18;;;;;;;0.80;0.80;;;;;;;8.92;56.46;95485.91;4917937;29;20689;-76
2023/03/28 02:45:57;;;;;;;1.97;0.93;;;;;;;8.74;55.78;95511.09;4935936;29;20761;-81
2023/03/28 02:48:41;;;;;;;0.97;0.70;;;;;;;8.66;55.40;95489.28;4931840;29;20276;-79
2023/03/28 02:51:23;;;;;;;1.43;0.70;;;;;;;8.72;55.93;95496.63;4915442;29;20202;-78
2023/03/28 02:53:55;;;;;;;1.13;0.70;;;;;;;8.57;54.95;95492.47;4915774;29;20276;-78
2023/03/28 02:56:32;;;;;;;0.70;0.70;;;;;;;8.50;54.82;95493.75;4913916;29;20245;-78
2023/03/28 02:59:12;;;;;;;0.80;0.80;;;;;;;8.56;54.79;95508.84;4915619;29;20193;-73
2023/03/28 03:01:40;;;;;;;1.23;0.77;;;;;;;8.61;54.33;95510.25;4931966;29;20240;-79
2023/03/28 03:04:07;;;;;;;0.70;0.70;;;;;;;8.54;52.82;95508.13;4931888;29;20670;-77
2023/03/28 03:06:35;;;;;;;0.60;0.60;;;;;;;8.51;52.97;95510.91;4931051;29;20281;-79
2023/03/28 03:09:03;;;;;;;0.70;0.70;;;;;;;8.46;53.41;95526.66;4931337;29;20210;-78
2023/03/28 03:11:31;;;;;;;0.90;0.70;;;;;;;8.54;52.89;95518.44;4932954;29;20225;-79
2023/03/28 03:13:59;;;;;;;0.80;0.60;;;;;;;8.56;51.46;95516.59;4913884;29;20226;-79
2023/03/28 03:16:28;;;;;;;3.63;0.63;;;;;;;8.53;50.88;95509.06;4906181;29;20297;-80
2023/03/28 03:18:57;;;;;;;0.70;0.70;;;;;;;8.61;51.60;95509.41;4895433;29;20706;-77
2023/03/28 03:21:24;;;;;;;0.70;0.70;;;;;;;8.59;51.69;95500.94;4912988;29;20231;-79
2023/03/28 03:23:51;;;;;;;2.40;0.80;;;;;;;8.53;51.18;95507.28;4911996;29;20281;-81
2023/03/28 03:26:19;;;;;;;1.40;0.80;;;;;;;8.46;50.57;95507.78;4891526;29;20718;-79
2023/03/28 03:29:01;;;;;;;0.70;0.70;;;;;;;8.29;51.68;95510.53;4893015;29;20274;-80
2023/03/28 03:31:31;;;;;;;1.40;1.10;;;;;;;8.38;51.48;95495.34;4892826;29;20231;-80
2023/03/28 03:34:17;;;;;;;0.80;0.80;;;;;;;8.41;50.19;95513.19;4886993;29;20708;-74
2023/03/28 03:36:51;;;;;;;1.80;1.10;;;;;;;8.44;50.52;95514.78;4893674;29;20195;-79
2023/03/28 03:39:19;;;;;;;0.50;0.50;;;;;;;8.27;51.21;95509.81;4904440;29;20550;-79
2023/03/28 03:41:47;;;;;;;0.70;0.70;;;;;;;8.39;50.64;95521.97;4905995;29;20195;-79
2023/03/28 03:44:14;;;;;;;1.13;0.90;;;;;;;8.44;50.39;95520.78;4866646;29;20207;-80
2023/03/28 03:46:41;;;;;;;0.67;0.60;;;;;;;8.43;49.11;95526.03;4893155;29;20211;-80
2023/03/28 03:49:09;;;;;;;0.60;0.60;;;;;;;8.39;48.86;95527.94;4892468;29;20199;-80
2023/03/28 03:51:38;;;;;;;0.57;0.57;;;;;;;8.39;49.42;95540.03;4891981;29;20744;-81
2023/03/28 03:54:05;;;;;;;1.07;0.80;;;;;;;8.36;49.78;95538.47;4907265;29;20227;-81
2023/03/28 03:56:35;;;;;;;0.87;0.60;;;;;;;8.35;48.18;95548.84;4891536;29;20195;-77
2023/03/28 03:59:03;;;;;;;0.60;0.60;;;;;;;8.25;47.94;95548.59;4892340;29;20270;-80
2023/03/28 04:01:32;;;;;;;0.90;0.77;;;;;;;8.31;49.04;95557.69;4906913;29;20274;-81
2023/03/28 04:04:14;;;;;;;0.60;0.60;;;;;;;8.22;48.09;95562.47;4926071;29;20202;-78
2023/03/28 04:07:01;;;;;;;0.60;0.60;;;;;;;8.16;48.15;95549.13;4926414;29;20202;-79
2023/03/28 04:09:28;;;;;;;0.60;0.60;;;;;;;8.14;47.42;95558.69;4925386;29;20258;-79
2023/03/28 04:11:59;;;;;;;0.80;0.80;;;;;;;8.03;48.14;95579.97;4910669;29;20230;-79
2023/03/28 04:14:26;;;;;;;0.67;0.67;;;;;;;8.00;47.83;95584.47;4925079;29;20305;-81
2023/03/28 04:17:14;;;;;;;0.70;0.70;;;;;;;7.96;48.94;95583.81;4911443;29;20194;-75
2023/03/28 04:19:42;;;;;;;1.10;1.10;;;;;;;7.82;48.22;95588.94;4925100;29;20304;-78
2023/03/28 04:22:11;;;;;;;3.60;0.80;;;;;;;7.82;48.77;95601.00;4906524;29;20251;-80
2023/03/28 04:24:45;;;;;;;0.80;0.80;;;;;;;7.76;48.45;95601.34;4891634;29;20196;-77
2023/03/28 04:27:28;;;;;;;0.70;0.70;;;;;;;7.63;49.13;95596.06;4886923;29;20242;-74
2023/03/28 04:29:56;;;;;;;1.00;0.90;;;;;;;7.62;50.37;95609.88;4889209;29;20617;-77
2023/03/28 04:32:48;;;;;;;0.80;0.80;;;;;;;7.46;49.28;95591.03;4854507;29;20267;-81
2023/03/28 04:35:25;;;;;;;0.80;0.80;;;;;;;7.50;48.52;95604.59;4880242;29;20296;-77
2023/03/28 04:37:52;;;;;;;1.23;0.80;;;;;;;7.40;49.57;95612.00;4911750;29;20224;-74
2023/03/28 04:40:21;;;;;;;0.83;0.83;;;;;;;7.32;49.71;95598.72;4925167;29;20293;-79
2023/03/28 04:43:17;;;;;;;2.70;1.23;;;;;;;7.38;50.08;95635.25;4911744;29;20288;-80
2023/03/28 04:45:53;;;;;;;0.70;0.70;;;;;;;7.36;50.95;95628.53;4912826;29;20207;-78
2023/03/28 04:48:22;;;;;;;2.63;0.93;;;;;;;7.45;49.35;95627.19;4930953;29;20198;-78
2023/03/28 04:50:49;;;;;;;1.00;0.90;;;;;;;7.45;49.44;95625.47;4912779;29;20278;-76
2023/03/28 04:53:17;;;;;;;1.30;0.80;;;;;;;7.25;49.52;95615.44;4910789;29;20658;-74
2023/03/28 04:56:07;;;;;;;1.53;1.00;;;;;;;7.40;49.89;95624.88;4893814;29;20673;-79
2023/03/28 04:58:35;;;;;;;0.80;0.80;;;;;;;7.47;49.09;95628.78;4911420;29;20307;-80
2023/03/28 05:01:04;;;;;;;1.47;1.03;;;;;;;7.54;49.68;95632.69;4910251;29;20201;-80
2023/03/28 05:04:08;;;;;;;1.10;0.90;;;;;;;7.48;48.99;95612.38;4910095;29;20199;-81
2023/03/28 05:06:35;;;;;;;0.77;0.77;;;;;;;7.59;49.08;95656.41;4908448;29;20202;-81
2023/03/28 05:09:03;;;;;;;0.80;0.80;;;;;;;7.37;48.91;95643.94;4925519;29;20724;-78
2023/03/28 05:11:32;;;;;;;0.73;0.70;;;;;;;7.41;48.82;95657.44;4911544;29;20183;-75
2023/03/28 05:13:59;;;;;;;0.87;0.83;;;;;;;7.40;48.98;95651.47;4910041;29;20222;-74
2023/03/28 05:16:35;;;;;;;2.30;0.90;;;;;;;7.45;48.44;95658.09;4909924;29;20195;-80
2023/03/28 05:19:24;;;;;;;1.67;1.23;;;;;;;7.54;48.64;95662.75;4909836;29;20234;-81
2023/03/28 05:22:23;;;;;;;0.77;0.77;;;;;;;7.45;48.21;95640.91;4910507;29;20206;-79
2023/03/28 05:25:08;;;;;;;0.80;0.80;;;;;;;7.50;49.19;95648.38;4908197;29;20281;-78
2023/03/28 05:27:37;;;;;;;0.70;0.70;;;;;;;7.35;48.00;95665.50;4889300;29;20233;-77
2023/03/28 05:30:59;;;;;;;1.00;0.90;;;;;;;7.38;48.88;95673.88;4890608;29;20203;-77
2023/03/28 05:34:20;;;;;;;3.00;1.07;;;;;;;7.50;49.48;95687.03;4889424;29;20237;-74
2023/03/28 05:37:02;;;;;;;0.80;0.80;;;;;;;7.48;49.60;95683.69;4888759;29;20340;-79
2023/03/28 05:39:37;;;;;;;1.13;1.10;;;;;;;7.37;50.07;95673.97;4875123;29;20201;-78
2023/03/28 05:42:07;;;;;;;1.67;1.13;;;;;;;7.31;49.07;95689.78;4890709;29;20583;-80
2023/03/28 05:44:37;;;;;;;1.13;1.00;;;;;;;7.25;49.14;95697.84;4889542;29;20202;-81
2023/03/28 05:47:39;;;;;;;2.40;2.00;;;;;;;7.22;49.31;95700.56;4873131;29;20961;-76
2023/03/28 05:50:07;;;;;;;1.40;1.10;;;;;;;7.12;49.54;95710.53;4890343;29;20699;-80
2023/03/28 05:52:34;;;;;;;2.20;1.30;;;;;;;7.06;49.48;95679.97;4893854;29;20213;-82
2023/03/28 05:55:06;;;;;;;0.90;0.90;;;;;;;7.20;49.15;95707.53;4893747;29;20226;-78
2023/03/28 05:57:33;;;;;;;1.57;1.10;;;;;;;7.02;48.77;95675.06;4892564;29;20248;-76
2023/03/28 06:00:13;;;;;;;1.57;1.00;;;;;;;7.18;48.83;95710.19;4878961;29;20217;-77
2023/03/28 06:02:50;;;;;;;1.20;1.10;;;;;;;7.12;48.98;95699.41;4892486;29;20200;-81
2023/03/28 06:05:21;;;;;;;1.37;1.27;;;;;;;7.16;49.38;95690.59;4893772;29;20619;-81
2023/03/28 06:07:50;;;;;;;0.90;0.90;;;;;;;7.20;49.60;95681.78;4909101;29;20199;-79
2023/03/28 06:10:18;;;;;;;2.53;1.20;;;;;;;7.45;48.25;95689.00;4908839;29;20280;-79
2023/03/28 06:12:59;;;;;;;1.10;1.00;;;;;;;7.60;47.86;95707.03;4880026;29;20274;-76
2023/03/28 06:15:26;;;;;;;2.10;1.13;;;;;;;7.64;47.93;95708.53;4908086;29;20222;-78
2023/03/28 06:17:54;;;;;;;2.97;0.97;;;;;;;7.77;47.74;95742.19;4909281;29;20203;-74
2023/03/28 06:20:22;;;;;;;1.00;1.00;;;;;;;7.53;48.45;95725.47;4892228;29;20202;-78
2023/03/28 06:22:52;;;;;;;2.90;0.97;;;;;;;7.55;47.68;95751.97;4908990;29;20219;-72
2023/03/28 06:25:19;;;;;;;1.13;1.00;;;;;;;7.61;48.35;95764.53;4878420;29;20209;-77
2023/03/28 06:27:47;;;;;;;1.20;1.10;;;;;;;7.61;47.94;95755.06;4912569;29;20191;-73
2023/03/28 06:30:14;;;;;;;1.53;1.30;;;;;;;7.70;47.90;95771.75;4912611;29;20225;-78
2023/03/28 06:32:45;;;;;;;1.07;0.97;;;;;;;7.75;47.66;95769.78;4912322;29;20627;-76
2023/03/28 06:35:13;;;;;;;2.67;1.20;;;;;;;7.76;45.75;95736.19;4880965;29;20260;-77
2023/03/28 06:37:40;;;;;;;1.10;1.10;;;;;;;7.99;46.25;95768.41;4864210;29;20293;-73
2023/03/28 06:40:08;;;;;;;1.93;1.40;;;;;;;8.10;46.41;95768.63;4911931;29;20281;-79
2023/03/28 06:42:35;;;;;;;1.77;1.20;;;;;;;8.05;46.83;95794.69;4913172;29;20635;-79
2023/03/28 06:45:18;;;;;;;1.57;1.47;;;;;;;7.91;47.19;95768.00;4910713;29;20322;-78
2023/03/28 06:47:57;;;;;;;1.17;1.07;;;;;;;7.62;46.30;95746.44;4877357;29;20251;-76
2023/03/28 06:50:49;;;;;;;1.20;1.10;;;;;;;7.85;46.12;95764.00;4893451;29;20581;-83
2023/03/28 06:53:19;;;;;;;2.00;1.30;;;;;;;7.87;46.12;95793.09;4892659;29;20683;-78
2023/03/28 06:55:52;;;;;;;1.57;1.03;;;;;;;7.84;46.66;95782.13;4877345;29;20263;-78
2023/03/28 06:58:21;;;;;;;1.60;1.23;;;;;;;7.90;45.87;95790.38;4875621;29;20698;-83
2023/03/28 07:00:54;;;;;;;1.13;1.00;;;;;;;7.75;46.73;95798.13;4892878;29;20205;-81
2023/03/28 07:03:36;;;;;;;1.40;0.97;;;;;;;8.01;46.05;95803.50;4891351;29;20204;-81
2023/03/28 07:06:06;;;;;;;1.13;1.00;;;;;;;8.26;46.06;95791.84;4892515;29;20208;-74
2023/03/28 07:08:34;;;;;;;2.17;1.10;;;;;;;8.31;45.74;95805.28;4861177;29;20261;-73
2023/03/28 07:11:02;;;;;;;1.20;1.10;;;;;;;8.12;45.69;95816.59;4892034;29;20211;-77
2023/03/28 07:13:30;;;;;;;1.10;1.00;;;;;;;8.03;45.88;95809.41;4893166;29;20198;-75
2023/03/28 07:16:14;;;;;;;1.87;1.07;;;;;;;8.43;45.35;95822.66;4896157;29;20303;-77
2023/03/28 07:18:42;;;;;;;1.50;1.30;;;;;;;8.55;45.66;95866.63;4901745;29;20218;-79
2023/03/28 07:21:14;;;;;;;3.13;1.33;;;;;;;8.54;44.55;95840.94;4877139;29;20210;-72
2023/03/28 07:23:43;;;;;;;1.13;1.03;;;;;;;8.72;45.11;95837.28;4896620;29;20227;-78
2023/03/28 07:26:13;;;;;;;1.43;1.33;;;;;;;8.45;44.11;95838.91;4896455;29;20230;-77
2023/03/28 07:28:40;;;;;;;1.43;1.10;;;;;;;8.17;45.58;95840.41;4911872;29;20222;-75
2023/03/28 07:31:08;;;;;;;1.20;1.10;;;;;;;8.23;46.06;95852.13;4912608;29;20601;-75
2023/03/28 07:33:37;;;;;;;1.40;1.30;;;;;;;8.32;46.33;95850.81;4909674;29;20191;-75
2023/03/28 07:36:16;;;;;;;1.60;1.50;;;;;;;8.43;46.53;95856.22;4912365;29;20286;-76
2023/03/28 07:38:48;;;;;;;0.97;0.90;;;;;;;8.80;44.57;95860.91;4880644;29;20197;-76
2023/03/28 07:41:17;;;;;;;1.10;1.10;;;;;;;8.63;45.13;95856.75;4898384;29;20639;-76
2023/03/28 07:43:44;;;;;;;1.07;1.07;;;;;;;8.53;44.82;95894.28;4906564;29;20246;-79
2023/03/28 07:46:13;;;;;;;1.10;1.00;;;;;;;8.10;46.15;95830.50;4909222;29;20755;-77
2023/03/28 07:48:42;;;;;;;1.87;1.40;;;;;;;7.62;46.05;95821.13;4912255;29;20582;-78
2023/03/28 07:51:09;;;;;;;1.63;1.00;;;;;;;7.94;46.59;95874.34;4877971;29;20251;-74
2023/03/28 07:53:37;;;;;;;4.10;1.20;;;;;;;7.89;45.93;95871.16;4894908;29;20226;-76
2023/03/28 07:56:10;;;;;;;1.47;1.10;;;;;;;8.04;45.43;95860.03;4894481;29;20238;-73
2023/03/28 07:58:56;;;;;;;6.57;1.63;;;;;;;8.47;44.92;95868.00;4910396;29;20297;-75
2023/03/28 08:01:25;;;;;;;1.87;1.37;;;;;;;8.40;45.34;95902.78;4894763;29;20194;-76
2023/03/28 08:04:02;;;;;;;1.40;1.30;;;;;;;8.47;45.51;95883.50;4910608;29;20269;-79
2023/03/28 08:06:51;;;;;;;1.20;1.10;;;;;;;8.18;44.70;95883.31;4894378;29;20273;-76
2023/03/28 08:09:18;;;;;;;1.07;1.00;;;;;;;8.37;44.83;95892.63;4878592;29;20602;-76
2023/03/28 08:11:47;;;;;;;2.20;1.40;;;;;;;8.40;44.19;95895.06;4910667;29;20687;-76
2023/03/28 08:14:16;;;;;;;2.00;1.20;;;;;;;8.32;43.87;95908.38;4911743;29;20194;-78
2023/03/28 08:16:45;;;;;;;1.50;1.27;;;;;;;8.25;45.05;95927.69;4910786;29;20193;-77
2023/03/28 08:19:13;;;;;;;1.13;1.03;;;;;;;8.51;44.88;95915.94;4894240;29;20225;-80
2023/03/28 08:22:01;;;;;;;1.50;1.00;;;;;;;8.75;44.47;95925.72;4894374;29;20197;-77
2023/03/28 08:24:32;;;;;;;2.37;1.30;;;;;;;8.48;43.57;95885.16;4893568;29;20191;-76
2023/03/28 08:27:14;;;;;;;2.27;1.10;;;;;;;8.60;44.43;95912.84;4894491;29;20241;-74
2023/03/28 08:29:43;;;;;;;1.83;1.30;;;;;;;8.34;43.87;95882.50;4893278;29;20606;-75
2023/03/28 08:32:10;;;;;;;1.57;1.30;;;;;;;8.49;43.79;95903.09;4894715;29;20195;-82
2023/03/28 08:34:39;;;;;;;5.37;1.60;;;;;;;8.35;42.75;95895.31;4893224;29;20225;-75
2023/03/28 08:37:13;;;;;;;4.27;1.67;;;;;;;8.55;44.10;95928.56;4894019;29;20205;-78
2023/03/28 08:39:42;;;;;;;1.40;1.30;;;;;;;8.24;43.73;95901.03;4894555;29;20183;-78
2023/03/28 08:42:21;;;;;;;2.07;1.27;;;;;;;8.73;43.94;95906.91;4893212;29;20305;-76
2023/03/28 08:44:56;;;;;;;2.40;1.30;;;;;;;8.80;43.69;95935.75;4894349;29;20198;-76
2023/03/28 08:47:44;;;;;;;1.17;1.10;;;;;;;9.02;42.70;95910.41;4877515;29;20213;-79
2023/03/28 08:50:22;;;;;;;2.03;1.30;;;;;;;9.24;42.35;95922.91;4893884;29;20198;-77
2023/03/28 08:52:50;;;;;;;1.53;0.90;;;;;;;9.31;42.37;95952.63;4893856;29;20199;-78
2023/03/28 08:55:41;;;;;;;2.70;1.03;;;;;;;8.93;43.52;95934.16;4892643;29;20241;-77
2023/03/28 08:58:18;;;;;;;3.67;2.27;;;;;;;9.01;44.70;95939.72;4910800;29;20215;-81
2023/03/28 09:00:47;;;;;;;1.90;1.30;;;;;;;9.11;41.78;95938.28;4892961;29;20281;-81
2023/03/28 09:03:18;;;;;;;3.30;1.23;;;;;;;9.07;41.64;95965.19;4892983;29;20205;-79
2023/03/28 09:05:55;;;;;;;3.93;1.80;;;;;;;9.09;42.09;95954.78;4893749;29;20206;-78
2023/03/28 09:08:22;;;;;;;3.03;1.20;;;;;;;9.11;41.17;95984.75;4892336;29;20207;-79
2023/03/28 09:11:18;;;;;;;1.63;1.37;;;;;;;9.10;41.56;95956.44;4893750;29;20649;-78
2023/03/28 09:14:23;;;;;;;1.47;1.30;;;;;;;9.26;41.06;95981.31;4890973;29;20647;-77
2023/03/28 09:17:08;;;;;;;2.67;1.27;;;;;;;9.33;39.68;96013.63;4892585;29;20196;-77
2023/03/28 09:19:35;;;;;;;1.60;1.30;;;;;;;8.70;40.06;96012.06;4893809;29;20186;-76
2023/03/28 09:23:30;;;;;;;2.50;1.43;;;;;;;8.29;40.78;96028.91;4891982;29;20202;-79
2023/03/28 09:26:28;;;;;;;1.50;1.37;;;;;;;8.16;40.69;95995.22;4865884;29;20287;-79
2023/03/28 09:29:15;;;;;;;3.77;1.60;;;;;;;8.20;40.83;95948.53;4896929;29;20201;-79
2023/03/28 09:31:53;;;;;;;2.40;1.70;;;;;;;8.62;40.43;95997.00;4897702;29;20249;-80
2023/03/28 09:34:26;;;;;;;2.27;1.60;;;;;;;8.84;40.57;95976.81;4913063;29;20285;-79
2023/03/28 09:37:00;;;;;;;2.27;1.67;;;;;;;8.94;39.30;96013.31;4897726;29;20198;-81
2023/03/28 09:39:43;;;;;;;2.17;1.87;;;;;;;8.91;39.39;96003.97;4880592;29;20289;-80
2023/03/28 09:42:28;;;;;;;7.47;1.90;;;;;;;9.01;39.08;96019.75;4896682;29;20745;-77
2023/03/28 09:45:53;;;;;;;6.47;2.17;;;;;;;8.96;38.31;96007.09;4897311;29;20671;-77
2023/03/28 09:48:56;;;;;;;2.37;1.67;;;;;;;9.13;38.09;95988.09;4855205;29;20204;-79
2023/03/28 09:51:28;;;;;;;2.97;1.83;;;;;;;9.41;37.82;95997.69;4889761;29;20705;-78
2023/03/28 09:53:55;;;;;;;3.83;2.13;;;;;;;9.49;37.89;96009.25;4897140;29;20195;-81
2023/03/28 09:56:30;;;;;;;4.17;1.73;;;;;;;9.36;37.14;96030.69;4895465;29;20222;-73
2023/03/28 09:59:27;;;;;;;2.13;1.90;;;;;;;9.75;36.66;96036.13;4881092;29;20206;-78
2023/03/28 10:02:01;;;;;;;5.73;3.00;;;;;;;10.05;36.33;96051.63;4881284;29;20699;-81
2023/03/28 10:04:38;;;;;;;2.70;1.40;;;;;;;9.48;36.37;96025.66;4895674;29;20201;-76
2023/03/28 10:07:07;;;;;;;1.93;1.20;;;;;;;9.81;37.13;96028.88;4913953;29;20195;-79
2023/03/28 10:09:57;;;;;;;1.77;1.23;;;;;;;9.73;36.11;96027.66;4896245;29;20294;-72
2023/03/28 10:12:36;;;;;;;3.57;1.70;;;;;;;9.73;35.73;96018.13;4897466;29;20592;-77
2023/03/28 10:15:07;;;;;;;1.53;1.43;;;;;;;9.60;35.56;96050.78;4896757;29;20223;-80
2023/03/28 10:18:02;;;;;;;3.53;1.80;;;;;;;9.87;35.39;96055.28;4910603;29;20218;-82
2023/03/28 10:20:36;;;;;;;1.67;1.50;;;;;;;9.66;35.38;96058.22;4881243;29;20610;-80
2023/03/28 10:23:05;;;;;;;2.83;1.90;;;;;;;9.63;36.04;96042.03;4896968;29;20225;-81
2023/03/28 10:25:48;;;;;;;2.10;1.57;;;;;;;9.67;36.30;96051.28;4896063;29;20692;-79
2023/03/28 10:28:26;;;;;;;1.83;1.50;;;;;;;9.52;36.44;96052.97;4913701;29;20670;-80
2023/03/28 10:30:57;;;;;;;1.47;1.10;;;;;;;9.29;36.25;96058.66;4896270;29;20916;-79
2023/03/28 10:33:41;;;;;;;1.60;1.50;;;;;;;9.14;37.05;96046.59;4896594;29;20203;-75
2023/03/28 10:36:41;;;;;;;2.10;1.30;;;;;;;9.19;37.20;96054.88;4898702;29;20242;-77
2023/03/28 10:39:31;;;;;;;1.60;1.50;;;;;;;9.43;36.87;96068.19;4896019;29;20190;-76
2023/03/28 10:42:21;;;;;;;2.40;1.33;;;;;;;9.26;36.33;96066.56;4913957;29;20573;-77
2023/03/28 10:45:02;;;;;;;1.70;1.57;;;;;;;9.43;36.75;96061.28;4896020;29;20286;-80
2023/03/28 10:47:34;;;;;;;2.17;1.77;;;;;;;9.67;35.45;96072.78;4902243;29;20722;-75
2023/03/28 10:50:18;;;;;;;1.30;1.20;;;;;;;9.63;35.93;96065.28;4926613;29;20647;-78
2023/03/28 10:52:51;;;;;;;1.70;1.27;;;;;;;9.52;35.34;96052.16;4910764;29;20194;-75
2023/03/28 10:55:39;;;;;;;1.57;1.13;;;;;;;9.44;35.58;96070.69;4927185;29;20241;-76
2023/03/28 10:58:38;;;;;;;1.37;1.23;;;;;;;9.41;36.24;96060.53;4927652;29;20202;-76
2023/03/28 11:01:32;;;;;;;2.67;1.73;;;;;;;9.72;35.84;96070.78;4895661;29;20250;-79
2023/03/28 11:04:12;;;;;;;2.57;1.83;;;;;;;9.98;35.72;96058.06;4926700;29;20287;-74
2023/03/28 11:07:13;;;;;;;2.80;1.70;;;;;;;10.24;35.93;96072.91;4927044;29;20203;-75
2023/03/28 11:10:25;;;;;;;4.73;1.20;;;;;;;10.34;35.71;96076.63;4927176;29;20191;-74
2023/03/28 11:13:37;;;;;;;2.63;1.80;;;;;;;10.21;36.01;96079.09;4907457;29;20277;-80
2023/03/28 11:16:24;;;;;;;1.80;1.53;;;;;;;10.18;36.68;96089.63;4912497;29;20352;-77
2023/03/28 11:19:47;;;;;;;1.50;1.40;;;;;;;10.10;36.80;96088.41;4910484;29;20261;-77
2023/03/28 11:22:47;;;;;;;2.83;1.70;;;;;;;9.84;36.79;96095.09;4894871;29;20778;-78
2023/03/28 11:25:59;;;;;;;2.80;1.50;;;;;;;9.49;36.93;96088.50;4926973;29;20733;-77
2023/03/28 11:29:07;;;;;;;3.90;1.87;;;;;;;9.64;36.92;96090.22;4913640;29;20190;-76
2023/03/28 11:31:54;;;;;;;2.87;1.70;;;;;;;9.52;35.75;96094.34;4910643;29;20191;-75
2023/03/28 11:34:33;;;;;;;2.50;1.40;;;;;;;9.33;36.84;96114.41;4911139;29;20195;-76
2023/03/28 11:37:12;;;;;;;2.20;1.80;;;;;;;9.41;36.76;96153.56;4912524;29;20689;-77
2023/03/28 11:39:41;;;;;;;1.40;1.30;;;;;;;9.28;36.83;96105.22;4942104;28;20201;-76
2023/03/28 11:42:21;;;;;;;3.00;1.80;;;;;;;9.35;35.46;96117.72;4911016;29;20199;-74
2023/03/28 11:45:22;;;;;;;1.60;1.33;;;;;;;9.34;33.41;96128.97;4924610;29;20202;-78
2023/03/28 11:48:32;;;;;;;2.33;1.40;;;;;;;9.34;33.44;96102.28;4890896;29;20202;-76
2023/03/28 11:51:11;;;;;;;1.57;1.40;;;;;;;9.65;34.67;96128.91;4892097;29;20206;-76
2023/03/28 11:54:05;;;;;;;1.77;1.43;;;;;;;9.26;34.97;96123.38;4876506;29;20191;-76
2023/03/28 11:57:01;;;;;;;2.40;1.60;;;;;;;9.51;33.87;96118.53;4891473;29;20230;-79
2023/03/28 11:59:59;;;;;;;2.67;1.90;;;;;;;9.44;33.83;96106.00;4894375;29;20268;-76
2023/03/28 12:02:29;;;;;;;2.17;1.70;;;;;;;9.47;34.04;96118.78;4903806;29;20201;-78
2023/03/28 12:05:31;;;;;;;2.93;2.13;;;;;;;9.01;33.79;96135.97;4894169;29;20305;-75
2023/03/28 12:08:04;;;;;;;4.40;2.23;;;;;;;8.46;33.88;96135.47;4895919;29;20198;-79
2023/03/28 12:10:35;;;;;;;2.70;1.90;;;;;;;8.31;34.50;96130.25;4893979;29;20199;-75
2023/03/28 12:13:19;;;;;;;4.30;2.73;;;;;;;8.81;34.63;96116.41;4894806;29;20218;-78
2023/03/28 12:16:08;;;;;;;2.10;1.90;;;;;;;8.95;34.48;96146.63;4894613;29;20316;-77
2023/03/28 12:18:42;;;;;;;3.60;2.10;;;;;;;8.64;34.16;96133.69;4910664;29;20535;-80
2023/03/28 12:21:40;;;;;;;3.30;1.80;;;;;;;8.52;34.11;96153.22;4887247;29;20691;-76
2023/03/28 12:24:24;;;;;;;3.37;1.70;;;;;;;8.48;33.98;96158.63;4894417;29;20186;-78
2023/03/28 12:27:34;;;;;;;1.77;1.43;;;;;;;8.42;34.60;96152.03;4902146;29;20237;-79
2023/03/28 12:30:32;;;;;;;1.80;1.60;;;;;;;8.90;34.56;96161.53;4894365;29;20755;-81
2023/03/28 12:33:08;;;;;;;2.70;1.67;;;;;;;8.70;34.21;96215.94;4894433;29;20198;-78
2023/03/28 12:35:55;;;;;;;2.20;1.70;;;;;;;8.33;34.69;96162.81;4892838;29;20619;-80